sensor_id;sensor_type;location;lat;lon;timestamp;P1;durP1;ratioP1;P2;durP2;ratioP2
21905;SDS011;11117;48.644;9.006;2023-05-28T00:00:58;21.63;;;7.77;;
21905;SDS011;11117;48.644;9.006;2023-05-28T00:03:24;17.37;;;7.63;;
21905;SDS011;11117;48.644;9.006;2023-05-28T00:05:49;17.33;;;8.90;;
21905;SDS011;11117;48.644;9.006;2023-05-28T00:08:15;13.57;;;7.90;;
21905;SDS011;11117;48.644;9.006;2023-05-28T00:10:41;18.17;;;8.50;;
21905;SDS011;11117;48.644;9.006;2023-05-28T00:13:07;16.93;;;8.43;;
21905;SDS011;11117;48.644;9.006;2023-05-28T00:15:33;14.57;;;8.47;;
21905;SDS011;11117;48.644;9.006;2023-05-28T00:17:58;14.17;;;7.93;;
21905;SDS011;11117;48.644;9.006;2023-05-28T00:20:24;16.17;;;7.87;;
21905;SDS011;11117;48.644;9.006;2023-05-28T00:22:49;13.53;;;7.87;;
21905;SDS011;11117;48.644;9.006;2023-05-28T00:25:15;21.00;;;8.37;;
21905;SDS011;11117;48.644;9.006;2023-05-28T00:27:41;19.93;;;8.37;;
21905;SDS011;11117;48.644;9.006;2023-05-28T00:30:06;18.40;;;8.07;;
21905;SDS011;11117;48.644;9.006;2023-05-28T00:32:32;20.27;;;8.57;;
21905;SDS011;11117;48.644;9.006;2023-05-28T00:34:57;13.47;;;7.67;;
21905;SDS011;11117;48.644;9.006;2023-05-28T00:37:23;17.70;;;7.67;;
21905;SDS011;11117;48.644;9.006;2023-05-28T00:39:49;17.17;;;8.00;;
21905;SDS011;11117;48.644;9.006;2023-05-28T00:42:14;14.07;;;8.30;;
21905;SDS011;11117;48.644;9.006;2023-05-28T00:44:40;14.93;;;8.30;;
21905;SDS011;11117;48.644;9.006;2023-05-28T00:47:05;14.80;;;7.80;;
21905;SDS011;11117;48.644;9.006;2023-05-28T00:49:31;15.83;;;8.53;;
21905;SDS011;11117;48.644;9.006;2023-05-28T00:51:57;15.30;;;7.97;;
21905;SDS011;11117;48.644;9.006;2023-05-28T00:54:22;15.97;;;7.53;;
21905;SDS011;11117;48.644;9.006;2023-05-28T00:56:48;14.67;;;7.40;;
21905;SDS011;11117;48.644;9.006;2023-05-28T00:59:14;17.10;;;8.30;;
21905;SDS011;11117;48.644;9.006;2023-05-28T01:01:40;16.93;;;8.73;;
21905;SDS011;11117;48.644;9.006;2023-05-28T01:04:06;17.23;;;8.03;;
21905;SDS011;11117;48.644;9.006;2023-05-28T01:06:32;16.43;;;8.23;;
21905;SDS011;11117;48.644;9.006;2023-05-28T01:08:57;21.50;;;8.83;;
21905;SDS011;11117;48.644;9.006;2023-05-28T01:11:23;14.87;;;8.37;;
21905;SDS011;11117;48.644;9.006;2023-05-28T01:13:49;18.40;;;9.10;;
21905;SDS011;11117;48.644;9.006;2023-05-28T01:16:15;19.97;;;8.50;;
21905;SDS011;11117;48.644;9.006;2023-05-28T01:18:41;17.40;;;9.67;;
21905;SDS011;11117;48.644;9.006;2023-05-28T01:21:07;18.27;;;7.73;;
21905;SDS011;11117;48.644;9.006;2023-05-28T01:23:41;17.70;;;8.13;;
21905;SDS011;11117;48.644;9.006;2023-05-28T01:26:10;16.07;;;7.93;;
21905;SDS011;11117;48.644;9.006;2023-05-28T01:28:37;12.47;;;6.80;;
21905;SDS011;11117;48.644;9.006;2023-05-28T01:31:02;17.40;;;7.60;;
21905;SDS011;11117;48.644;9.006;2023-05-28T01:33:28;23.80;;;7.43;;
21905;SDS011;11117;48.644;9.006;2023-05-28T01:35:54;15.30;;;7.50;;
21905;SDS011;11117;48.644;9.006;2023-05-28T01:38:22;24.00;;;7.43;;
21905;SDS011;11117;48.644;9.006;2023-05-28T01:40:49;14.07;;;7.33;;
21905;SDS011;11117;48.644;9.006;2023-05-28T01:43:18;15.23;;;6.50;;
21905;SDS011;11117;48.644;9.006;2023-05-28T01:45:44;14.60;;;6.97;;
21905;SDS011;11117;48.644;9.006;2023-05-28T01:48:10;14.30;;;6.57;;
21905;SDS011;11117;48.644;9.006;2023-05-28T01:50:36;14.90;;;7.57;;
21905;SDS011;11117;48.644;9.006;2023-05-28T01:53:01;11.87;;;6.70;;
21905;SDS011;11117;48.644;9.006;2023-05-28T01:55:27;13.43;;;6.37;;
21905;SDS011;11117;48.644;9.006;2023-05-28T01:57:52;12.57;;;7.00;;
21905;SDS011;11117;48.644;9.006;2023-05-28T02:00:18;15.33;;;6.70;;
21905;SDS011;11117;48.644;9.006;2023-05-28T02:02:44;14.63;;;7.17;;
21905;SDS011;11117;48.644;9.006;2023-05-28T02:05:10;16.60;;;7.27;;
21905;SDS011;11117;48.644;9.006;2023-05-28T02:07:35;17.43;;;8.20;;
21905;SDS011;11117;48.644;9.006;2023-05-28T02:10:01;16.40;;;7.20;;
21905;SDS011;11117;48.644;9.006;2023-05-28T02:12:26;15.13;;;7.43;;
21905;SDS011;11117;48.644;9.006;2023-05-28T02:14:52;16.30;;;7.17;;
21905;SDS011;11117;48.644;9.006;2023-05-28T02:17:17;16.10;;;7.03;;
21905;SDS011;11117;48.644;9.006;2023-05-28T02:19:43;18.37;;;7.33;;
21905;SDS011;11117;48.644;9.006;2023-05-28T02:22:09;16.03;;;7.37;;
21905;SDS011;11117;48.644;9.006;2023-05-28T02:24:34;16.80;;;7.50;;
21905;SDS011;11117;48.644;9.006;2023-05-28T02:27:00;18.20;;;7.27;;
21905;SDS011;11117;48.644;9.006;2023-05-28T02:29:25;20.37;;;7.57;;
21905;SDS011;11117;48.644;9.006;2023-05-28T02:31:51;14.80;;;7.43;;
21905;SDS011;11117;48.644;9.006;2023-05-28T02:34:16;15.37;;;7.70;;
21905;SDS011;11117;48.644;9.006;2023-05-28T02:36:42;16.07;;;7.67;;
21905;SDS011;11117;48.644;9.006;2023-05-28T02:39:07;16.10;;;7.30;;
21905;SDS011;11117;48.644;9.006;2023-05-28T02:41:33;18.27;;;7.53;;
21905;SDS011;11117;48.644;9.006;2023-05-28T02:43:58;15.30;;;7.33;;
21905;SDS011;11117;48.644;9.006;2023-05-28T02:46:24;11.53;;;7.20;;
21905;SDS011;11117;48.644;9.006;2023-05-28T02:48:49;13.43;;;7.53;;
21905;SDS011;11117;48.644;9.006;2023-05-28T02:51:15;13.33;;;7.00;;
21905;SDS011;11117;48.644;9.006;2023-05-28T02:53:40;16.23;;;7.97;;
21905;SDS011;11117;48.644;9.006;2023-05-28T02:56:06;18.07;;;8.77;;
21905;SDS011;11117;48.644;9.006;2023-05-28T02:58:31;23.27;;;9.00;;
21905;SDS011;11117;48.644;9.006;2023-05-28T03:00:57;15.53;;;7.73;;
21905;SDS011;11117;48.644;9.006;2023-05-28T03:03:22;16.73;;;7.77;;
21905;SDS011;11117;48.644;9.006;2023-05-28T03:05:48;17.70;;;7.87;;
21905;SDS011;11117;48.644;9.006;2023-05-28T03:08:14;20.17;;;8.20;;
21905;SDS011;11117;48.644;9.006;2023-05-28T03:10:40;16.23;;;8.80;;
21905;SDS011;11117;48.644;9.006;2023-05-28T03:13:05;19.80;;;9.00;;
21905;SDS011;11117;48.644;9.006;2023-05-28T03:15:31;22.47;;;11.83;;
21905;SDS011;11117;48.644;9.006;2023-05-28T03:17:56;27.23;;;17.20;;
21905;SDS011;11117;48.644;9.006;2023-05-28T03:20:22;23.83;;;11.37;;
21905;SDS011;11117;48.644;9.006;2023-05-28T03:22:48;21.90;;;9.63;;
21905;SDS011;11117;48.644;9.006;2023-05-28T03:25:19;18.60;;;9.10;;
21905;SDS011;11117;48.644;9.006;2023-05-28T03:27:45;22.80;;;8.53;;
21905;SDS011;11117;48.644;9.006;2023-05-28T03:30:10;15.33;;;8.37;;
21905;SDS011;11117;48.644;9.006;2023-05-28T03:32:36;19.90;;;8.87;;
21905;SDS011;11117;48.644;9.006;2023-05-28T03:35:02;21.43;;;8.20;;
21905;SDS011;11117;48.644;9.006;2023-05-28T03:37:28;16.83;;;8.17;;
21905;SDS011;11117;48.644;9.006;2023-05-28T03:39:53;21.43;;;8.33;;
21905;SDS011;11117;48.644;9.006;2023-05-28T03:42:20;18.03;;;8.10;;
21905;SDS011;11117;48.644;9.006;2023-05-28T03:44:46;17.07;;;8.83;;
21905;SDS011;11117;48.644;9.006;2023-05-28T03:47:11;18.23;;;9.03;;
21905;SDS011;11117;48.644;9.006;2023-05-28T03:49:37;15.33;;;8.73;;
21905;SDS011;11117;48.644;9.006;2023-05-28T03:52:03;19.87;;;9.20;;
21905;SDS011;11117;48.644;9.006;2023-05-28T03:54:29;17.20;;;9.00;;
21905;SDS011;11117;48.644;9.006;2023-05-28T03:56:54;16.37;;;9.20;;
21905;SDS011;11117;48.644;9.006;2023-05-28T03:59:20;16.10;;;8.50;;
21905;SDS011;11117;48.644;9.006;2023-05-28T04:01:45;17.07;;;8.03;;
21905;SDS011;11117;48.644;9.006;2023-05-28T04:04:11;16.70;;;7.97;;
21905;SDS011;11117;48.644;9.006;2023-05-28T04:06:36;17.77;;;8.33;;
21905;SDS011;11117;48.644;9.006;2023-05-28T04:09:02;16.00;;;7.57;;
21905;SDS011;11117;48.644;9.006;2023-05-28T04:11:28;17.07;;;7.80;;
21905;SDS011;11117;48.644;9.006;2023-05-28T04:13:53;14.10;;;7.93;;
21905;SDS011;11117;48.644;9.006;2023-05-28T04:16:20;31.37;;;20.10;;
21905;SDS011;11117;48.644;9.006;2023-05-28T04:18:46;47.00;;;29.33;;
21905;SDS011;11117;48.644;9.006;2023-05-28T04:21:11;21.60;;;14.40;;
21905;SDS011;11117;48.644;9.006;2023-05-28T04:23:37;25.23;;;11.80;;
21905;SDS011;11117;48.644;9.006;2023-05-28T04:26:02;23.27;;;12.93;;
21905;SDS011;11117;48.644;9.006;2023-05-28T04:28:28;22.60;;;13.20;;
21905;SDS011;11117;48.644;9.006;2023-05-28T04:30:54;23.97;;;13.47;;
21905;SDS011;11117;48.644;9.006;2023-05-28T04:33:19;18.87;;;10.50;;
21905;SDS011;11117;48.644;9.006;2023-05-28T04:35:45;17.43;;;9.77;;
21905;SDS011;11117;48.644;9.006;2023-05-28T04:38:10;19.57;;;9.87;;
21905;SDS011;11117;48.644;9.006;2023-05-28T04:40:36;19.93;;;10.53;;
21905;SDS011;11117;48.644;9.006;2023-05-28T04:43:02;21.67;;;9.47;;
21905;SDS011;11117;48.644;9.006;2023-05-28T04:45:27;18.50;;;9.97;;
21905;SDS011;11117;48.644;9.006;2023-05-28T04:47:53;18.83;;;10.87;;
21905;SDS011;11117;48.644;9.006;2023-05-28T04:50:18;23.23;;;10.70;;
21905;SDS011;11117;48.644;9.006;2023-05-28T04:52:44;18.77;;;9.67;;
21905;SDS011;11117;48.644;9.006;2023-05-28T04:55:09;27.63;;;15.00;;
21905;SDS011;11117;48.644;9.006;2023-05-28T04:57:35;23.07;;;14.17;;
21905;SDS011;11117;48.644;9.006;2023-05-28T05:00:00;19.03;;;10.20;;
21905;SDS011;11117;48.644;9.006;2023-05-28T05:02:26;17.37;;;9.07;;
21905;SDS011;11117;48.644;9.006;2023-05-28T05:04:51;16.67;;;8.73;;
21905;SDS011;11117;48.644;9.006;2023-05-28T05:07:18;17.50;;;8.83;;
21905;SDS011;11117;48.644;9.006;2023-05-28T05:09:43;17.37;;;8.80;;
21905;SDS011;11117;48.644;9.006;2023-05-28T05:12:09;13.77;;;7.30;;
21905;SDS011;11117;48.644;9.006;2023-05-28T05:14:34;15.10;;;6.83;;
21905;SDS011;11117;48.644;9.006;2023-05-28T05:17:02;14.80;;;6.63;;
21905;SDS011;11117;48.644;9.006;2023-05-28T05:19:27;12.97;;;6.40;;
21905;SDS011;11117;48.644;9.006;2023-05-28T05:21:53;14.27;;;7.00;;
21905;SDS011;11117;48.644;9.006;2023-05-28T05:24:18;16.23;;;6.73;;
21905;SDS011;11117;48.644;9.006;2023-05-28T05:26:44;16.40;;;6.57;;
21905;SDS011;11117;48.644;9.006;2023-05-28T05:29:10;14.13;;;6.77;;
21905;SDS011;11117;48.644;9.006;2023-05-28T05:31:35;13.93;;;6.80;;
21905;SDS011;11117;48.644;9.006;2023-05-28T05:34:01;13.57;;;6.33;;
21905;SDS011;11117;48.644;9.006;2023-05-28T05:36:26;14.17;;;8.00;;
21905;SDS011;11117;48.644;9.006;2023-05-28T05:38:52;15.40;;;8.18;;
21905;SDS011;11117;48.644;9.006;2023-05-28T05:41:17;17.70;;;9.88;;
21905;SDS011;11117;48.644;9.006;2023-05-28T05:43:43;23.63;;;9.48;;
21905;SDS011;11117;48.644;9.006;2023-05-28T05:46:08;15.15;;;7.68;;
21905;SDS011;11117;48.644;9.006;2023-05-28T05:48:34;17.17;;;7.90;;
21905;SDS011;11117;48.644;9.006;2023-05-28T05:50:59;12.73;;;6.55;;
21905;SDS011;11117;48.644;9.006;2023-05-28T05:53:25;9.20;;;5.07;;
21905;SDS011;11117;48.644;9.006;2023-05-28T05:55:50;13.85;;;6.00;;
21905;SDS011;11117;48.644;9.006;2023-05-28T05:58:16;12.43;;;4.60;;
21905;SDS011;11117;48.644;9.006;2023-05-28T06:00:42;12.20;;;4.85;;
21905;SDS011;11117;48.644;9.006;2023-05-28T06:03:07;11.38;;;5.13;;
21905;SDS011;11117;48.644;9.006;2023-05-28T06:05:33;10.45;;;4.78;;
21905;SDS011;11117;48.644;9.006;2023-05-28T06:08:00;11.85;;;4.70;;
21905;SDS011;11117;48.644;9.006;2023-05-28T06:10:26;10.85;;;5.10;;
21905;SDS011;11117;48.644;9.006;2023-05-28T06:12:51;11.68;;;4.50;;
21905;SDS011;11117;48.644;9.006;2023-05-28T06:15:17;13.95;;;5.03;;
21905;SDS011;11117;48.644;9.006;2023-05-28T06:17:42;11.05;;;4.60;;
21905;SDS011;11117;48.644;9.006;2023-05-28T06:20:08;13.48;;;4.85;;
21905;SDS011;11117;48.644;9.006;2023-05-28T06:22:34;11.98;;;4.57;;
21905;SDS011;11117;48.644;9.006;2023-05-28T06:25:00;11.35;;;4.82;;
21905;SDS011;11117;48.644;9.006;2023-05-28T06:27:26;8.20;;;4.38;;
21905;SDS011;11117;48.644;9.006;2023-05-28T06:29:52;10.45;;;5.10;;
21905;SDS011;11117;48.644;9.006;2023-05-28T06:32:18;13.73;;;4.50;;
21905;SDS011;11117;48.644;9.006;2023-05-28T06:34:44;10.85;;;4.80;;
21905;SDS011;11117;48.644;9.006;2023-05-28T06:37:10;8.82;;;4.65;;
21905;SDS011;11117;48.644;9.006;2023-05-28T06:39:35;13.45;;;5.53;;
21905;SDS011;11117;48.644;9.006;2023-05-28T06:42:01;9.63;;;5.00;;
21905;SDS011;11117;48.644;9.006;2023-05-28T06:44:26;10.98;;;4.88;;
21905;SDS011;11117;48.644;9.006;2023-05-28T06:46:52;10.48;;;4.65;;
21905;SDS011;11117;48.644;9.006;2023-05-28T06:49:18;12.00;;;5.75;;
21905;SDS011;11117;48.644;9.006;2023-05-28T06:51:44;10.40;;;4.60;;
21905;SDS011;11117;48.644;9.006;2023-05-28T06:54:10;12.70;;;5.03;;
21905;SDS011;11117;48.644;9.006;2023-05-28T06:56:35;12.18;;;4.90;;
21905;SDS011;11117;48.644;9.006;2023-05-28T06:59:01;9.40;;;4.35;;
21905;SDS011;11117;48.644;9.006;2023-05-28T07:01:26;12.43;;;5.03;;
21905;SDS011;11117;48.644;9.006;2023-05-28T07:03:52;10.05;;;4.78;;
21905;SDS011;11117;48.644;9.006;2023-05-28T07:06:18;13.23;;;4.97;;
21905;SDS011;11117;48.644;9.006;2023-05-28T07:08:43;11.85;;;5.10;;
21905;SDS011;11117;48.644;9.006;2023-05-28T07:11:09;13.55;;;5.20;;
21905;SDS011;11117;48.644;9.006;2023-05-28T07:13:35;10.80;;;5.25;;
21905;SDS011;11117;48.644;9.006;2023-05-28T07:16:01;13.50;;;5.45;;
21905;SDS011;11117;48.644;9.006;2023-05-28T07:18:27;8.57;;;4.95;;
21905;SDS011;11117;48.644;9.006;2023-05-28T07:20:52;13.10;;;5.55;;
21905;SDS011;11117;48.644;9.006;2023-05-28T07:23:18;9.95;;;4.53;;
21905;SDS011;11117;48.644;9.006;2023-05-28T07:25:43;11.50;;;5.18;;
21905;SDS011;11117;48.644;9.006;2023-05-28T07:28:09;11.48;;;4.90;;
21905;SDS011;11117;48.644;9.006;2023-05-28T07:30:34;15.40;;;5.05;;
21905;SDS011;11117;48.644;9.006;2023-05-28T07:33:00;12.73;;;4.57;;
21905;SDS011;11117;48.644;9.006;2023-05-28T07:35:26;12.60;;;5.25;;
21905;SDS011;11117;48.644;9.006;2023-05-28T07:37:52;11.10;;;4.63;;
21905;SDS011;11117;48.644;9.006;2023-05-28T07:40:18;15.10;;;5.38;;
21905;SDS011;11117;48.644;9.006;2023-05-28T07:42:43;10.10;;;4.80;;
21905;SDS011;11117;48.644;9.006;2023-05-28T07:45:09;10.20;;;4.93;;
21905;SDS011;11117;48.644;9.006;2023-05-28T07:47:35;8.60;;;4.22;;
21905;SDS011;11117;48.644;9.006;2023-05-28T07:50:01;11.93;;;5.03;;
21905;SDS011;11117;48.644;9.006;2023-05-28T07:52:26;10.05;;;4.90;;
21905;SDS011;11117;48.644;9.006;2023-05-28T07:54:52;11.43;;;4.53;;
21905;SDS011;11117;48.644;9.006;2023-05-28T07:57:18;10.70;;;4.75;;
21905;SDS011;11117;48.644;9.006;2023-05-28T07:59:43;10.95;;;4.85;;
21905;SDS011;11117;48.644;9.006;2023-05-28T08:02:09;15.00;;;4.55;;
21905;SDS011;11117;48.644;9.006;2023-05-28T08:04:34;14.82;;;4.78;;
21905;SDS011;11117;48.644;9.006;2023-05-28T08:07:00;12.07;;;4.93;;
21905;SDS011;11117;48.644;9.006;2023-05-28T08:09:25;10.98;;;4.57;;
21905;SDS011;11117;48.644;9.006;2023-05-28T08:11:51;10.15;;;4.60;;
21905;SDS011;11117;48.644;9.006;2023-05-28T08:14:16;13.30;;;4.65;;
21905;SDS011;11117;48.644;9.006;2023-05-28T08:16:42;13.48;;;4.88;;
21905;SDS011;11117;48.644;9.006;2023-05-28T08:19:07;10.57;;;4.80;;
21905;SDS011;11117;48.644;9.006;2023-05-28T08:21:33;11.65;;;4.35;;
21905;SDS011;11117;48.644;9.006;2023-05-28T08:23:58;10.43;;;4.53;;
21905;SDS011;11117;48.644;9.006;2023-05-28T08:26:24;10.90;;;4.25;;
21905;SDS011;11117;48.644;9.006;2023-05-28T08:28:49;9.98;;;4.10;;
21905;SDS011;11117;48.644;9.006;2023-05-28T08:31:15;17.10;;;4.70;;
21905;SDS011;11117;48.644;9.006;2023-05-28T08:33:40;9.73;;;4.53;;
21905;SDS011;11117;48.644;9.006;2023-05-28T08:36:06;11.07;;;4.75;;
21905;SDS011;11117;48.644;9.006;2023-05-28T08:38:31;10.45;;;4.75;;
21905;SDS011;11117;48.644;9.006;2023-05-28T08:40:57;10.00;;;4.68;;
21905;SDS011;11117;48.644;9.006;2023-05-28T08:43:23;9.95;;;4.13;;
21905;SDS011;11117;48.644;9.006;2023-05-28T08:45:52;10.82;;;4.82;;
21905;SDS011;11117;48.644;9.006;2023-05-28T08:48:17;13.30;;;4.60;;
21905;SDS011;11117;48.644;9.006;2023-05-28T08:50:45;13.77;;;4.40;;
21905;SDS011;11117;48.644;9.006;2023-05-28T08:53:14;13.48;;;5.20;;
21905;SDS011;11117;48.644;9.006;2023-05-28T08:55:41;13.05;;;4.63;;
21905;SDS011;11117;48.644;9.006;2023-05-28T08:58:08;10.70;;;4.82;;
21905;SDS011;11117;48.644;9.006;2023-05-28T09:00:36;10.52;;;4.88;;
21905;SDS011;11117;48.644;9.006;2023-05-28T09:03:02;14.00;;;4.43;;
21905;SDS011;11117;48.644;9.006;2023-05-28T09:05:27;10.65;;;4.10;;
21905;SDS011;11117;48.644;9.006;2023-05-28T09:07:53;11.18;;;4.50;;
21905;SDS011;11117;48.644;9.006;2023-05-28T09:10:18;13.35;;;4.57;;
21905;SDS011;11117;48.644;9.006;2023-05-28T09:12:59;21.23;;;4.95;;
21905;SDS011;11117;48.644;9.006;2023-05-28T09:15:25;11.52;;;4.30;;
21905;SDS011;11117;48.644;9.006;2023-05-28T09:17:51;10.70;;;4.63;;
21905;SDS011;11117;48.644;9.006;2023-05-28T09:20:16;10.20;;;3.97;;
21905;SDS011;11117;48.644;9.006;2023-05-28T09:22:42;10.68;;;4.10;;
21905;SDS011;11117;48.644;9.006;2023-05-28T09:25:08;10.05;;;4.00;;
21905;SDS011;11117;48.644;9.006;2023-05-28T09:27:34;13.00;;;4.70;;
21905;SDS011;11117;48.644;9.006;2023-05-28T09:30:04;17.00;;;4.90;;
21905;SDS011;11117;48.644;9.006;2023-05-28T09:32:35;12.38;;;4.13;;
21905;SDS011;11117;48.644;9.006;2023-05-28T09:35:01;13.32;;;4.28;;
21905;SDS011;11117;48.644;9.006;2023-05-28T09:37:30;12.05;;;5.03;;
21905;SDS011;11117;48.644;9.006;2023-05-28T09:40:14;11.73;;;4.35;;
21905;SDS011;11117;48.644;9.006;2023-05-28T09:42:41;11.48;;;4.10;;
21905;SDS011;11117;48.644;9.006;2023-05-28T09:45:10;11.88;;;4.20;;
21905;SDS011;11117;48.644;9.006;2023-05-28T09:47:42;11.15;;;4.25;;
21905;SDS011;11117;48.644;9.006;2023-05-28T09:50:08;12.70;;;4.15;;
21905;SDS011;11117;48.644;9.006;2023-05-28T09:52:34;14.02;;;4.15;;
21905;SDS011;11117;48.644;9.006;2023-05-28T09:55:07;9.60;;;4.68;;
21905;SDS011;11117;48.644;9.006;2023-05-28T09:57:35;10.95;;;3.95;;
21905;SDS011;11117;48.644;9.006;2023-05-28T10:00:09;11.00;;;4.38;;
21905;SDS011;11117;48.644;9.006;2023-05-28T10:05:48;11.70;;;4.50;;
21905;SDS011;11117;48.644;9.006;2023-05-28T10:08:21;11.52;;;4.28;;
21905;SDS011;11117;48.644;9.006;2023-05-28T10:10:49;13.63;;;4.50;;
21905;SDS011;11117;48.644;9.006;2023-05-28T10:13:17;10.80;;;4.57;;
21905;SDS011;11117;48.644;9.006;2023-05-28T10:15:43;14.40;;;4.65;;
21905;SDS011;11117;48.644;9.006;2023-05-28T10:18:10;13.70;;;4.38;;
21905;SDS011;11117;48.644;9.006;2023-05-28T10:20:35;10.05;;;4.20;;
21905;SDS011;11117;48.644;9.006;2023-05-28T10:23:01;8.93;;;4.10;;
21905;SDS011;11117;48.644;9.006;2023-05-28T10:25:27;11.93;;;4.00;;
21905;SDS011;11117;48.644;9.006;2023-05-28T10:27:57;8.38;;;4.10;;
21905;SDS011;11117;48.644;9.006;2023-05-28T10:33:37;8.38;;;3.88;;
21905;SDS011;11117;48.644;9.006;2023-05-28T10:36:09;9.07;;;4.10;;
21905;SDS011;11117;48.644;9.006;2023-05-28T10:38:45;8.23;;;3.88;;
21905;SDS011;11117;48.644;9.006;2023-05-28T10:41:17;8.55;;;4.18;;
21905;SDS011;11117;48.644;9.006;2023-05-28T10:43:47;12.10;;;4.28;;
21905;SDS011;11117;48.644;9.006;2023-05-28T10:46:17;10.82;;;4.03;;
21905;SDS011;11117;48.644;9.006;2023-05-28T10:52:08;13.25;;;4.00;;
21905;SDS011;11117;48.644;9.006;2023-05-28T11:00:21;11.02;;;4.47;;
21905;SDS011;11117;48.644;9.006;2023-05-28T11:02:25;13.32;;;3.88;;
21905;SDS011;11117;48.644;9.006;2023-05-28T11:04:58;12.18;;;4.78;;
21905;SDS011;11117;48.644;9.006;2023-05-28T11:07:32;13.90;;;6.28;;
21905;SDS011;11117;48.644;9.006;2023-05-28T11:09:59;8.32;;;3.83;;
21905;SDS011;11117;48.644;9.006;2023-05-28T11:12:26;9.10;;;4.40;;
21905;SDS011;11117;48.644;9.006;2023-05-28T11:14:52;10.82;;;4.07;;
21905;SDS011;11117;48.644;9.006;2023-05-28T11:17:18;16.77;;;4.57;;
21905;SDS011;11117;48.644;9.006;2023-05-28T11:19:46;8.70;;;4.25;;
21905;SDS011;11117;48.644;9.006;2023-05-28T11:22:13;8.77;;;4.25;;
21905;SDS011;11117;48.644;9.006;2023-05-28T11:24:59;7.90;;;3.83;;
21905;SDS011;11117;48.644;9.006;2023-05-28T11:27:32;8.38;;;4.18;;
21905;SDS011;11117;48.644;9.006;2023-05-28T11:29:59;12.50;;;3.92;;
21905;SDS011;11117;48.644;9.006;2023-05-28T11:32:26;10.27;;;3.95;;
21905;SDS011;11117;48.644;9.006;2023-05-28T11:34:53;11.10;;;4.95;;
21905;SDS011;11117;48.644;9.006;2023-05-28T11:37:43;7.80;;;4.28;;
21905;SDS011;11117;48.644;9.006;2023-05-28T11:40:11;11.02;;;4.20;;
21905;SDS011;11117;48.644;9.006;2023-05-28T11:42:38;14.15;;;5.40;;
21905;SDS011;11117;48.644;9.006;2023-05-28T11:45:07;9.20;;;4.20;;
21905;SDS011;11117;48.644;9.006;2023-05-28T11:47:35;10.80;;;4.97;;
21905;SDS011;11117;48.644;9.006;2023-05-28T11:50:13;9.98;;;5.50;;
21905;SDS011;11117;48.644;9.006;2023-05-28T11:52:39;13.85;;;4.63;;
21905;SDS011;11117;48.644;9.006;2023-05-28T11:55:05;10.13;;;4.43;;
21905;SDS011;11117;48.644;9.006;2023-05-28T11:57:32;8.55;;;4.72;;
21905;SDS011;11117;48.644;9.006;2023-05-28T11:59:59;15.32;;;4.88;;
21905;SDS011;11117;48.644;9.006;2023-05-28T12:02:32;10.50;;;4.65;;
21905;SDS011;11117;48.644;9.006;2023-05-28T12:05:00;12.80;;;4.32;;
21905;SDS011;11117;48.644;9.006;2023-05-28T12:07:27;9.65;;;4.75;;
21905;SDS011;11117;48.644;9.006;2023-05-28T12:12:37;7.38;;;4.25;;
21905;SDS011;11117;48.644;9.006;2023-05-28T12:15:05;11.73;;;5.10;;
21905;SDS011;11117;48.644;9.006;2023-05-28T12:17:34;12.15;;;4.57;;
21905;SDS011;11117;48.644;9.006;2023-05-28T12:20:01;11.73;;;6.00;;
21905;SDS011;11117;48.644;9.006;2023-05-28T12:22:26;8.77;;;4.50;;
21905;SDS011;11117;48.644;9.006;2023-05-28T12:24:52;11.93;;;4.97;;
21905;SDS011;11117;48.644;9.006;2023-05-28T12:27:22;8.23;;;4.47;;
21905;SDS011;11117;48.644;9.006;2023-05-28T12:29:48;12.65;;;5.82;;
21905;SDS011;11117;48.644;9.006;2023-05-28T12:32:14;13.35;;;5.03;;
21905;SDS011;11117;48.644;9.006;2023-05-28T12:34:39;10.68;;;5.05;;
21905;SDS011;11117;48.644;9.006;2023-05-28T12:37:05;12.80;;;5.03;;
21905;SDS011;11117;48.644;9.006;2023-05-28T12:39:30;11.40;;;5.07;;
21905;SDS011;11117;48.644;9.006;2023-05-28T12:41:56;17.80;;;6.35;;
21905;SDS011;11117;48.644;9.006;2023-05-28T12:44:21;8.88;;;4.72;;
21905;SDS011;11117;48.644;9.006;2023-05-28T12:46:47;11.60;;;4.97;;
21905;SDS011;11117;48.644;9.006;2023-05-28T12:49:13;17.13;;;4.95;;
21905;SDS011;11117;48.644;9.006;2023-05-28T12:51:38;13.35;;;4.85;;
21905;SDS011;11117;48.644;9.006;2023-05-28T12:54:05;15.13;;;6.18;;
21905;SDS011;11117;48.644;9.006;2023-05-28T12:56:31;13.82;;;5.35;;
21905;SDS011;11117;48.644;9.006;2023-05-28T12:58:57;9.48;;;4.93;;
21905;SDS011;11117;48.644;9.006;2023-05-28T13:01:23;10.77;;;5.18;;
21905;SDS011;11117;48.644;9.006;2023-05-28T13:03:49;9.75;;;5.25;;
21905;SDS011;11117;48.644;9.006;2023-05-28T13:06:15;11.80;;;5.72;;
21905;SDS011;11117;48.644;9.006;2023-05-28T13:08:41;10.93;;;4.88;;
21905;SDS011;11117;48.644;9.006;2023-05-28T13:11:06;12.88;;;4.85;;
21905;SDS011;11117;48.644;9.006;2023-05-28T13:13:32;7.65;;;4.80;;
21905;SDS011;11117;48.644;9.006;2023-05-28T13:15:57;11.60;;;5.05;;
21905;SDS011;11117;48.644;9.006;2023-05-28T13:18:23;10.40;;;4.78;;
21905;SDS011;11117;48.644;9.006;2023-05-28T13:20:48;13.80;;;4.72;;
21905;SDS011;11117;48.644;9.006;2023-05-28T13:23:14;9.55;;;4.50;;
21905;SDS011;11117;48.644;9.006;2023-05-28T13:25:39;10.05;;;4.13;;
21905;SDS011;11117;48.644;9.006;2023-05-28T13:28:05;10.07;;;4.65;;
21905;SDS011;11117;48.644;9.006;2023-05-28T13:30:30;9.45;;;4.70;;
21905;SDS011;11117;48.644;9.006;2023-05-28T13:32:56;14.57;;;4.28;;
21905;SDS011;11117;48.644;9.006;2023-05-28T13:35:21;9.45;;;4.60;;
21905;SDS011;11117;48.644;9.006;2023-05-28T13:37:47;9.10;;;4.88;;
21905;SDS011;11117;48.644;9.006;2023-05-28T13:40:12;8.98;;;4.65;;
21905;SDS011;11117;48.644;9.006;2023-05-28T13:42:42;7.38;;;4.45;;
21905;SDS011;11117;48.644;9.006;2023-05-28T13:45:08;10.90;;;4.90;;
21905;SDS011;11117;48.644;9.006;2023-05-28T13:47:33;10.77;;;4.50;;
21905;SDS011;11117;48.644;9.006;2023-05-28T13:49:59;13.07;;;5.05;;
21905;SDS011;11117;48.644;9.006;2023-05-28T13:52:24;9.30;;;4.75;;
21905;SDS011;11117;48.644;9.006;2023-05-28T13:54:50;8.00;;;4.72;;
21905;SDS011;11117;48.644;9.006;2023-05-28T13:57:15;6.72;;;4.13;;
21905;SDS011;11117;48.644;9.006;2023-05-28T13:59:41;8.60;;;5.10;;
21905;SDS011;11117;48.644;9.006;2023-05-28T14:02:06;11.98;;;5.68;;
21905;SDS011;11117;48.644;9.006;2023-05-28T14:04:32;11.68;;;5.18;;
21905;SDS011;11117;48.644;9.006;2023-05-28T14:06:58;8.98;;;4.95;;
21905;SDS011;11117;48.644;9.006;2023-05-28T14:09:24;16.85;;;4.85;;
21905;SDS011;11117;48.644;9.006;2023-05-28T14:11:50;9.23;;;5.18;;
21905;SDS011;11117;48.644;9.006;2023-05-28T14:14:15;10.85;;;4.90;;
21905;SDS011;11117;48.644;9.006;2023-05-28T14:16:41;6.93;;;4.82;;
21905;SDS011;11117;48.644;9.006;2023-05-28T14:19:06;14.18;;;4.80;;
21905;SDS011;11117;48.644;9.006;2023-05-28T14:21:32;9.63;;;4.88;;
21905;SDS011;11117;48.644;9.006;2023-05-28T14:23:57;11.32;;;4.97;;
21905;SDS011;11117;48.644;9.006;2023-05-28T14:26:23;8.32;;;5.10;;
21905;SDS011;11117;48.644;9.006;2023-05-28T14:28:48;9.65;;;4.68;;
21905;SDS011;11117;48.644;9.006;2023-05-28T14:31:14;9.60;;;4.90;;
21905;SDS011;11117;48.644;9.006;2023-05-28T14:33:39;9.82;;;4.70;;
21905;SDS011;11117;48.644;9.006;2023-05-28T14:36:05;7.95;;;4.90;;
21905;SDS011;11117;48.644;9.006;2023-05-28T14:38:31;8.57;;;4.25;;
21905;SDS011;11117;48.644;9.006;2023-05-28T14:40:56;9.32;;;4.70;;
21905;SDS011;11117;48.644;9.006;2023-05-28T14:43:22;9.43;;;4.50;;
21905;SDS011;11117;48.644;9.006;2023-05-28T14:45:47;10.57;;;4.50;;
21905;SDS011;11117;48.644;9.006;2023-05-28T14:48:13;10.60;;;4.75;;